Time;durP1;ratioP1;P1;durP2;ratioP2;P2;SDS_P1;SDS_P2;PMS_P1;PMS_P2;Temp;Humidity;BMP_temperature;BMP_pressure;BME280_temperature;BME280_humidity;BME280_pressure;Samples;Min_cycle;Max_cycle;Signal;HPM_P1;HPM_P2
2023/07/16 00:00:55;;;;;;;0.50;0.50;;;;;;;27.58;100.00;95538.16;5091906;28;20468;-54
2023/07/16 00:03:23;;;;;;;1.17;1.07;;;;;;;27.48;100.00;95536.13;5091369;28;20850;-54
2023/07/16 00:05:53;;;;;;;0.93;0.50;;;;;;;27.44;100.00;95533.38;5091537;28;20428;-54
2023/07/16 00:08:23;;;;;;;0.70;0.70;;;;;;;27.31;100.00;95529.28;5091558;28;20855;-54
2023/07/16 00:10:51;;;;;;;1.03;0.90;;;;;;;27.29;100.00;95531.59;5091912;28;20440;-54
2023/07/16 00:13:19;;;;;;;0.80;0.80;;;;;;;27.26;100.00;95531.53;5091335;28;20470;-54
2023/07/16 00:15:47;;;;;;;1.00;1.00;;;;;;;27.23;100.00;95535.78;5091286;28;20436;-54
2023/07/16 00:18:16;;;;;;;3.90;0.70;;;;;;;27.17;100.00;95531.06;5091515;28;20519;-54
2023/07/16 00:20:44;;;;;;;0.60;0.50;;;;;;;27.15;100.00;95528.69;5090825;28;20440;-54
2023/07/16 00:23:14;;;;;;;0.53;0.50;;;;;;;27.01;100.00;95528.50;5066107;28;20432;-54
2023/07/16 00:25:42;;;;;;;0.77;0.60;;;;;;;27.01;100.00;95528.50;5091064;28;20436;-54
2023/07/16 00:28:11;;;;;;;0.70;0.47;;;;;;;27.02;100.00;95530.84;5091384;28;20838;-54
2023/07/16 00:30:40;;;;;;;0.90;0.30;;;;;;;27.08;100.00;95523.16;5091324;28;20439;-55
2023/07/16 00:33:08;;;;;;;0.60;0.60;;;;;;;27.00;100.00;95526.94;5091534;28;20836;-54
2023/07/16 00:35:37;;;;;;;0.50;0.50;;;;;;;27.01;100.00;95533.97;5091164;28;20497;-54
2023/07/16 00:38:05;;;;;;;0.60;0.60;;;;;;;27.04;100.00;95533.22;5091336;28;20436;-54
2023/07/16 00:40:35;;;;;;;1.80;0.97;;;;;;;26.88;100.00;95529.88;5091662;28;20807;-54
2023/07/16 00:43:03;;;;;;;1.30;0.73;;;;;;;26.92;100.00;95538.88;5091578;28;20432;-54
2023/07/16 00:45:31;;;;;;;0.70;0.70;;;;;;;26.87;100.00;95534.53;5091166;28;20471;-54
2023/07/16 00:48:00;;;;;;;0.63;0.60;;;;;;;26.84;100.00;95534.50;5080090;28;20510;-54
2023/07/16 00:50:33;;;;;;;1.20;0.90;;;;;;;26.86;100.00;95530.25;5089803;28;20444;-54
2023/07/16 00:53:02;;;;;;;0.50;0.50;;;;;;;26.68;100.00;95529.19;5091143;28;20450;-54
2023/07/16 00:55:31;;;;;;;0.57;0.57;;;;;;;26.55;100.00;95532.47;5091033;28;20489;-54
2023/07/16 00:58:05;;;;;;;1.00;1.00;;;;;;;26.17;100.00;95536.16;5090801;28;20988;-55
2023/07/16 01:00:34;;;;;;;0.60;0.50;;;;;;;26.39;100.00;95530.69;5090905;28;20537;-55
2023/07/16 01:03:02;;;;;;;0.47;0.47;;;;;;;26.38;100.00;95531.84;5090747;28;20822;-55
2023/07/16 01:05:37;;;;;;;0.60;0.40;;;;;;;26.29;100.00;95531.31;5091187;28;20464;-55
2023/07/16 01:08:09;;;;;;;1.13;0.77;;;;;;;26.20;100.00;95530.78;5091407;28;20544;-55
2023/07/16 01:10:39;;;;;;;0.50;0.40;;;;;;;26.37;100.00;95537.63;5094290;28;20948;-55
2023/07/16 01:13:09;;;;;;;1.00;1.00;;;;;;;26.38;100.00;95531.84;5094425;28;20436;-55
2023/07/16 01:15:38;;;;;;;0.70;0.60;;;;;;;26.52;100.00;95534.00;5094749;28;20448;-54
2023/07/16 01:18:06;;;;;;;0.60;0.50;;;;;;;26.52;100.00;95530.47;5094188;28;20444;-55
2023/07/16 01:20:34;;;;;;;0.70;0.70;;;;;;;26.47;100.00;95532.38;5094520;28;20794;-55
2023/07/16 01:23:33;;;;;;;0.90;0.70;;;;;;;26.39;100.00;95527.97;5094184;28;20809;-55
2023/07/16 01:26:27;;;;;;;1.00;0.87;;;;;;;26.35;100.00;95531.78;5088242;28;20437;-55
2023/07/16 01:29:29;;;;;;;0.70;0.70;;;;;;;26.32;100.00;95527.06;5093816;28;20464;-55
2023/07/16 01:32:00;;;;;;;0.97;0.50;;;;;;;26.31;100.00;95526.28;5093936;28;20436;-55
2023/07/16 01:34:33;;;;;;;0.70;0.60;;;;;;;26.31;100.00;95523.56;5094084;28;21027;-55
2023/07/16 01:37:01;;;;;;;0.50;0.30;;;;;;;26.30;100.00;95526.66;5080464;28;20441;-55
2023/07/16 01:39:32;;;;;;;0.50;0.50;;;;;;;26.21;100.00;95528.84;5094181;28;21023;-55
2023/07/16 01:42:00;;;;;;;1.70;0.60;;;;;;;26.16;100.00;95529.91;5093903;28;20542;-55
2023/07/16 01:44:30;;;;;;;0.60;0.50;;;;;;;25.94;100.00;95535.31;5094287;28;20476;-55
2023/07/16 01:47:11;;;;;;;0.53;0.50;;;;;;;26.04;100.00;95537.44;5093822;28;20486;-55
2023/07/16 01:49:39;;;;;;;1.17;1.07;;;;;;;25.88;100.00;95488.69;5093982;28;20480;-55
2023/07/16 01:52:08;;;;;;;0.40;0.30;;;;;;;26.12;100.00;95542.66;5093912;28;20498;-55
2023/07/16 01:54:37;;;;;;;1.17;1.07;;;;;;;26.08;100.00;95530.94;5094245;28;20431;-55
2023/07/16 01:57:06;;;;;;;0.80;0.77;;;;;;;25.65;100.00;95474.31;5093512;28;20492;-55
2023/07/16 01:59:36;;;;;;;0.90;0.70;;;;;;;25.97;100.00;95540.03;5093689;28;20484;-55
2023/07/16 02:02:06;;;;;;;1.33;0.50;;;;;;;25.97;100.00;95529.97;5067703;28;20909;-55
2023/07/16 02:04:34;;;;;;;1.27;1.17;;;;;;;25.70;100.00;95544.59;5093185;28;20441;-55
2023/07/16 02:07:03;;;;;;;2.63;0.60;;;;;;;25.76;100.00;95543.94;5093406;28;20441;-55
2023/07/16 02:09:31;;;;;;;1.63;1.53;;;;;;;25.85;100.00;95541.00;5093614;28;20765;-55
2023/07/16 02:11:59;;;;;;;0.70;0.60;;;;;;;25.84;100.00;95532.06;5093962;28;20448;-55
2023/07/16 02:14:28;;;;;;;0.90;0.70;;;;;;;25.89;100.00;95533.69;5093215;28;20984;-55
2023/07/16 02:16:57;;;;;;;0.60;0.60;;;;;;;25.74;100.00;95535.38;5093073;28;20433;-55
2023/07/16 02:19:26;;;;;;;0.50;0.50;;;;;;;25.73;100.00;95535.72;5093457;28;20539;-55
2023/07/16 02:21:55;;;;;;;0.50;0.40;;;;;;;25.71;100.00;95533.38;5093521;28;20440;-55
2023/07/16 02:24:23;;;;;;;1.13;0.63;;;;;;;25.80;100.00;95542.09;5093066;28;20472;-55
2023/07/16 02:26:52;;;;;;;0.60;0.50;;;;;;;25.68;100.00;95534.09;5092989;28;20448;-55
2023/07/16 02:29:20;;;;;;;0.50;0.30;;;;;;;25.70;100.00;95539.94;5092933;28;20472;-55
2023/07/16 02:31:48;;;;;;;0.80;0.80;;;;;;;25.70;100.00;95533.75;5093594;28;20519;-55
2023/07/16 02:34:18;;;;;;;0.80;0.80;;;;;;;25.69;100.00;95537.59;5092953;28;20455;-55
2023/07/16 02:36:47;;;;;;;1.43;0.37;;;;;;;25.63;100.00;95547.16;5093617;28;20441;-55
2023/07/16 02:39:15;;;;;;;2.33;1.47;;;;;;;25.20;100.00;95550.94;5092660;28;21098;-55
2023/07/16 02:41:43;;;;;;;3.07;1.20;;;;;;;25.41;100.00;95545.16;5093002;28;20441;-55
2023/07/16 02:44:12;;;;;;;1.20;1.10;;;;;;;25.34;100.00;95539.59;5092738;28;20448;-55
2023/07/16 02:46:41;;;;;;;0.80;0.80;;;;;;;25.42;100.00;95541.31;5092610;28;20441;-55
2023/07/16 02:49:10;;;;;;;0.90;0.90;;;;;;;25.44;100.00;95544.44;5092965;28;20484;-55
2023/07/16 02:51:39;;;;;;;1.30;1.20;;;;;;;25.36;100.00;95542.72;5092839;28;20991;-55
2023/07/16 02:54:08;;;;;;;1.70;0.60;;;;;;;25.32;100.00;95545.41;5092664;28;20971;-55
2023/07/16 02:56:36;;;;;;;1.50;1.40;;;;;;;25.29;100.00;95546.09;5092649;28;20952;-55
2023/07/16 02:59:04;;;;;;;1.70;1.10;;;;;;;25.32;100.00;95552.75;5092258;28;20530;-55
2023/07/16 03:01:33;;;;;;;0.60;0.53;;;;;;;25.42;100.00;95550.25;5078596;28;20972;-55
2023/07/16 03:04:01;;;;;;;1.90;1.80;;;;;;;25.40;100.00;95549.78;5092607;28;20968;-55
2023/07/16 03:06:31;;;;;;;0.60;0.60;;;;;;;25.39;100.00;95555.59;5092597;28;20528;-55
2023/07/16 03:09:01;;;;;;;1.63;1.53;;;;;;;25.14;100.00;95552.38;5092279;28;20492;-55
2023/07/16 03:11:29;;;;;;;1.03;1.03;;;;;;;25.23;100.00;95559.16;5092268;28;20932;-55
2023/07/16 03:13:57;;;;;;;0.60;0.50;;;;;;;25.27;100.00;95551.88;5092441;28;20476;-55
2023/07/16 03:16:26;;;;;;;1.00;0.80;;;;;;;25.19;100.00;95560.22;5092222;28;20475;-55
2023/07/16 03:18:54;;;;;;;1.67;1.37;;;;;;;25.37;100.00;95555.97;5092029;28;20959;-55
2023/07/16 03:21:23;;;;;;;2.63;0.60;;;;;;;25.40;100.00;95557.94;5084082;28;20519;-55
2023/07/16 03:23:51;;;;;;;1.13;1.03;;;;;;;25.42;100.00;95558.38;5092252;28;20930;-55
2023/07/16 03:26:21;;;;;;;0.70;0.70;;;;;;;25.34;100.00;95564.03;5092321;28;20444;-55
2023/07/16 03:28:49;;;;;;;1.80;1.07;;;;;;;25.32;100.00;95561.69;5091758;28;20482;-55
2023/07/16 03:31:17;;;;;;;1.00;0.90;;;;;;;25.38;100.00;95562.16;5091792;28;20472;-55
2023/07/16 03:33:46;;;;;;;0.73;0.60;;;;;;;25.43;100.00;95562.66;5091643;28;20972;-55
2023/07/16 03:36:14;;;;;;;0.60;0.50;;;;;;;25.45;100.00;95559.59;5091753;28;20519;-55
2023/07/16 03:38:43;;;;;;;0.60;0.50;;;;;;;25.47;100.00;95560.06;5092070;28;20509;-55
2023/07/16 03:41:11;;;;;;;0.50;0.40;;;;;;;25.46;100.00;95559.25;5091502;28;20464;-55
2023/07/16 03:43:41;;;;;;;1.47;0.60;;;;;;;25.50;100.00;95559.34;5092261;28;20465;-55
2023/07/16 03:46:09;;;;;;;0.87;0.40;;;;;;;25.58;100.00;95561.03;5091745;28;20440;-55
2023/07/16 03:48:38;;;;;;;0.90;0.90;;;;;;;25.57;100.00;95559.47;5091506;28;20441;-55
2023/07/16 03:51:07;;;;;;;0.97;0.67;;;;;;;25.62;100.00;95567.31;5092024;28;20483;-56
2023/07/16 03:53:35;;;;;;;1.10;0.93;;;;;;;25.52;100.00;95563.28;5091479;28;20432;-55
2023/07/16 03:56:04;;;;;;;4.37;1.07;;;;;;;25.52;100.00;95567.91;5091167;28;20444;-55
2023/07/16 03:58:32;;;;;;;1.40;1.30;;;;;;;25.35;100.00;95569.06;5091082;28;20443;-55
2023/07/16 04:01:02;;;;;;;1.17;0.90;;;;;;;25.38;100.00;95562.94;5091565;28;20444;-55
2023/07/16 04:03:30;;;;;;;0.50;0.50;;;;;;;25.30;100.00;95568.59;5091891;28;20470;-54
2023/07/16 04:06:03;;;;;;;1.63;1.53;;;;;;;25.45;100.00;95562.31;5091881;28;20449;-55
2023/07/16 04:08:31;;;;;;;1.20;1.00;;;;;;;25.63;100.00;95566.97;5091551;28;20868;-55
2023/07/16 04:11:00;;;;;;;2.47;0.90;;;;;;;25.59;100.00;95573.47;5091455;28;20476;-55
2023/07/16 04:13:28;;;;;;;0.90;0.50;;;;;;;25.62;100.00;95576.25;5065616;28;20432;-55
2023/07/16 04:15:57;;;;;;;0.70;0.60;;;;;;;25.74;100.00;95578.03;5091016;28;20444;-55
2023/07/16 04:18:27;;;;;;;2.40;0.70;;;;;;;25.69;100.00;95557.38;5091637;28;20991;-55
2023/07/16 04:20:55;;;;;;;0.50;0.50;;;;;;;25.90;100.00;95576.00;5076613;28;20437;-55
2023/07/16 04:23:24;;;;;;;0.90;0.90;;;;;;;25.70;100.00;95580.66;5091528;28;20459;-56
2023/07/16 04:25:54;;;;;;;1.10;0.90;;;;;;;25.58;100.00;95571.88;5091059;28;20497;-55
2023/07/16 04:28:22;;;;;;;0.60;0.60;;;;;;;25.84;100.00;95583.66;5091314;28;20437;-55
2023/07/16 04:30:51;;;;;;;1.37;1.27;;;;;;;25.79;100.00;95583.16;5091318;28;20908;-54
2023/07/16 04:33:19;;;;;;;4.13;1.00;;;;;;;25.94;100.00;95578.78;5091947;28;20433;-55
2023/07/16 04:35:49;;;;;;;1.80;0.77;;;;;;;25.99;100.00;95592.84;5091016;28;20468;-55
2023/07/16 04:38:18;;;;;;;1.33;0.90;;;;;;;26.15;100.00;95585.41;5091325;28;20440;-55
2023/07/16 04:40:46;;;;;;;1.00;0.93;;;;;;;26.09;100.00;95592.25;5090838;28;20436;-55
2023/07/16 04:43:14;;;;;;;1.20;0.90;;;;;;;26.05;100.00;95587.91;5091053;28;20502;-55
2023/07/16 04:45:46;;;;;;;1.03;0.77;;;;;;;26.13;100.00;95587.72;5094298;28;20433;-54
2023/07/16 04:48:15;;;;;;;0.97;0.97;;;;;;;26.01;100.00;95590.56;5094958;28;20932;-54
2023/07/16 04:50:43;;;;;;;2.50;1.67;;;;;;;26.06;100.00;95592.22;5095108;28;20545;-55
2023/07/16 04:53:13;;;;;;;0.93;0.90;;;;;;;26.10;100.00;95584.91;5095061;28;20432;-55
2023/07/16 04:55:41;;;;;;;1.47;1.37;;;;;;;26.17;100.00;95596.72;5095408;28;20436;-55
2023/07/16 04:58:12;;;;;;;1.40;1.30;;;;;;;25.88;100.00;95585.66;5094190;28;20432;-55
2023/07/16 05:00:41;;;;;;;0.73;0.73;;;;;;;26.24;100.00;95594.09;5094386;28;20464;-55
2023/07/16 05:03:09;;;;;;;0.90;0.70;;;;;;;26.42;100.00;95589.75;5094750;28;20436;-54
2023/07/16 05:05:38;;;;;;;4.80;1.30;;;;;;;26.20;100.00;95598.72;5094844;28;20493;-54
2023/07/16 05:08:06;;;;;;;1.07;0.97;;;;;;;26.52;100.00;95595.72;5093960;28;20436;-55
2023/07/16 05:10:36;;;;;;;1.70;1.50;;;;;;;26.63;100.00;95597.47;5094609;28;20464;-55
2023/07/16 05:13:04;;;;;;;1.63;1.53;;;;;;;26.47;100.00;95597.63;5094360;28;20448;-55
2023/07/16 05:15:33;;;;;;;1.10;1.10;;;;;;;26.33;100.00;95602.81;5094480;28;20440;-54
2023/07/16 05:18:21;;;;;;;1.50;1.40;;;;;;;26.23;100.00;95589.84;5094316;28;20790;-55
2023/07/16 05:20:50;;;;;;;0.50;0.40;;;;;;;26.70;100.00;95607.69;5093908;28;21001;-55
2023/07/16 05:23:18;;;;;;;2.20;1.97;;;;;;;26.52;100.00;95593.00;5094567;28;20468;-55
2023/07/16 05:25:49;;;;;;;6.13;3.27;;;;;;;26.11;100.00;95551.16;5093763;28;20437;-55
2023/07/16 05:28:18;;;;;;;1.83;1.73;;;;;;;26.12;100.00;95607.88;5094402;28;20509;-56
2023/07/16 05:30:47;;;;;;;3.10;2.90;;;;;;;26.25;100.00;95608.50;5093970;28;20467;-55
2023/07/16 05:33:15;;;;;;;2.03;1.93;;;;;;;26.12;100.00;95604.38;5094773;28;20919;-55
2023/07/16 05:35:43;;;;;;;3.50;2.87;;;;;;;26.56;100.00;95605.53;5093908;28;20464;-55
2023/07/16 05:38:12;;;;;;;1.20;1.10;;;;;;;27.16;100.00;95600.22;5094129;28;20462;-55
2023/07/16 05:40:40;;;;;;;4.40;1.47;;;;;;;27.46;100.00;95609.22;5093547;28;20433;-55
2023/07/16 05:43:10;;;;;;;1.33;1.23;;;;;;;27.84;100.00;95610.84;5094091;28;20440;-55
2023/07/16 05:45:38;;;;;;;0.90;0.90;;;;;;;27.96;96.92;95613.31;5093232;28;20882;-55
2023/07/16 05:48:07;;;;;;;5.23;1.87;;;;;;;27.84;97.13;95608.91;5094014;28;20513;-56
2023/07/16 05:50:35;;;;;;;1.10;1.00;;;;;;;28.17;95.39;95605.38;5093660;28;20540;-56
2023/07/16 05:53:04;;;;;;;2.10;2.00;;;;;;;27.97;96.25;95606.72;5094061;28;20471;-57
2023/07/16 05:55:32;;;;;;;5.13;1.10;;;;;;;28.38;94.10;95608.34;5092876;28;20432;-57
2023/07/16 05:58:01;;;;;;;1.70;1.60;;;;;;;28.34;91.25;95597.38;5093623;28;20501;-56
2023/07/16 06:00:30;;;;;;;1.80;1.70;;;;;;;28.58;90.09;95597.97;5093422;28;21000;-56
2023/07/16 06:02:59;;;;;;;1.73;1.63;;;;;;;28.80;91.65;95603.25;5093196;28;20487;-59
2023/07/16 06:05:32;;;;;;;2.60;2.40;;;;;;;28.67;91.35;95603.91;5093774;28;20451;-58
2023/07/16 06:08:00;;;;;;;1.60;1.50;;;;;;;28.85;89.56;95613.81;5093552;28;20527;-57
2023/07/16 06:10:28;;;;;;;0.93;0.80;;;;;;;29.02;88.43;95608.88;5083434;28;20517;-56
2023/07/16 06:12:57;;;;;;;1.10;1.00;;;;;;;29.12;88.41;95613.63;5093110;28;22510;-56
2023/07/16 06:15:25;;;;;;;3.67;3.03;;;;;;;28.72;87.87;95604.34;5092792;28;20522;-56
2023/07/16 06:17:55;;;;;;;1.73;1.63;;;;;;;28.74;88.92;95607.47;5092392;28;20948;-56
2023/07/16 06:20:23;;;;;;;1.70;1.60;;;;;;;29.05;86.49;95597.97;5093205;28;20527;-55
2023/07/16 06:22:52;;;;;;;2.40;2.20;;;;;;;29.21;87.16;95600.44;5092939;28;20498;-56
2023/07/16 06:25:20;;;;;;;4.03;1.63;;;;;;;29.41;86.03;95602.50;5093001;28;20501;-56
2023/07/16 06:27:49;;;;;;;1.20;1.10;;;;;;;29.63;85.25;95591.66;5092694;28;20467;-55
2023/07/16 06:30:17;;;;;;;1.17;1.00;;;;;;;29.98;84.60;95603.50;5093165;28;20440;-56
2023/07/16 06:32:45;;;;;;;5.60;2.03;;;;;;;29.09;84.92;95589.81;5079377;28;20478;-59
2023/07/16 06:35:16;;;;;;;3.50;3.30;;;;;;;29.20;87.26;95593.38;5093034;28;20449;-60
2023/07/16 06:37:44;;;;;;;1.00;0.97;;;;;;;30.09;83.66;95587.94;5066392;28;20446;-60
2023/07/16 06:40:13;;;;;;;2.17;1.27;;;;;;;29.94;81.50;95586.34;5092256;28;20814;-60
2023/07/16 06:42:41;;;;;;;1.13;1.07;;;;;;;30.54;79.98;95583.72;5090102;28;20509;-60
2023/07/16 06:45:10;;;;;;;1.23;0.90;;;;;;;30.47;78.49;95580.97;5091296;28;20997;-59
2023/07/16 06:47:38;;;;;;;2.03;1.93;;;;;;;30.17;80.25;95575.84;5091053;28;20497;-60
2023/07/16 06:50:07;;;;;;;2.10;2.00;;;;;;;30.03;80.64;95572.31;5090818;28;20887;-60
2023/07/16 06:52:37;;;;;;;1.33;1.23;;;;;;;30.01;80.15;95569.94;5090002;28;20548;-60
2023/07/16 06:55:06;;;;;;;1.67;1.57;;;;;;;30.40;78.68;95577.44;5088981;28;20440;-60
2023/07/16 06:57:34;;;;;;;2.57;2.37;;;;;;;30.40;77.67;95578.25;5091128;28;20436;-60
2023/07/16 07:00:03;;;;;;;2.60;1.97;;;;;;;30.45;77.98;95568.84;5091115;28;20540;-61
2023/07/16 07:02:32;;;;;;;1.53;1.23;;;;;;;31.11;75.32;95561.78;5091389;28;20497;-63
2023/07/16 07:05:00;;;;;;;1.07;1.03;;;;;;;31.79;74.06;95561.16;5091356;28;20816;-62
2023/07/16 07:07:28;;;;;;;0.97;0.93;;;;;;;32.07;71.58;95552.03;5091018;28;20822;-60
2023/07/16 07:09:58;;;;;;;0.93;0.93;;;;;;;32.45;68.78;95553.72;5091451;28;20492;-60
2023/07/16 07:12:26;;;;;;;1.10;1.07;;;;;;;32.70;71.31;95555.50;5091990;28;20593;-59
2023/07/16 07:14:54;;;;;;;1.40;1.30;;;;;;;32.49;67.47;95554.47;5091838;28;20522;-59
2023/07/16 07:17:23;;;;;;;0.73;0.73;;;;;;;32.04;68.50;95544.59;5091911;28;20443;-59
2023/07/16 07:19:51;;;;;;;1.00;1.00;;;;;;;32.60;66.89;95548.94;5091271;28;20432;-58
2023/07/16 07:22:19;;;;;;;0.93;0.87;;;;;;;32.32;66.47;95557.34;5091664;28;20867;-59
2023/07/16 07:24:50;;;;;;;2.43;2.33;;;;;;;31.56;67.45;95560.09;5066092;28;20439;-59
2023/07/16 07:27:20;;;;;;;7.70;1.80;;;;;;;32.13;70.60;95547.66;5091268;28;20428;-59
2023/07/16 07:29:51;;;;;;;2.20;1.63;;;;;;;32.27;67.17;95549.53;5091946;28;20467;-59
2023/07/16 07:32:20;;;;;;;2.30;1.30;;;;;;;32.13;67.11;95550.41;5091714;28;20475;-60
2023/07/16 07:34:49;;;;;;;2.10;1.90;;;;;;;32.56;66.81;95553.69;5091323;28;20432;-60
2023/07/16 07:37:17;;;;;;;1.60;1.50;;;;;;;33.24;63.93;95544.38;5091134;28;20497;-59
2023/07/16 07:39:47;;;;;;;1.53;1.43;;;;;;;33.12;63.45;95547.66;5091322;28;20438;-60
2023/07/16 07:42:15;;;;;;;1.53;1.43;;;;;;;33.42;64.30;95546.94;5091200;28;20435;-60
2023/07/16 07:44:45;;;;;;;4.00;3.90;;;;;;;32.96;63.12;95527.41;5091463;28;20865;-61
2023/07/16 07:47:13;;;;;;;2.40;1.77;;;;;;;32.98;64.18;95538.75;5090864;28;20485;-59
2023/07/16 07:49:42;;;;;;;2.50;2.40;;;;;;;32.37;65.01;95524.00;5090895;28;20471;-59
2023/07/16 07:52:10;;;;;;;2.40;0.90;;;;;;;33.37;63.63;95533.63;5091332;28;20479;-59
2023/07/16 07:54:38;;;;;;;2.60;2.40;;;;;;;32.37;64.82;95529.47;5090804;28;20446;-59
2023/07/16 07:57:07;;;;;;;2.70;1.10;;;;;;;32.86;65.34;95534.56;5090350;28;20435;-59
2023/07/16 07:59:35;;;;;;;1.33;1.33;;;;;;;33.27;63.54;95523.56;5090934;28;20467;-59
2023/07/16 08:02:06;;;;;;;4.73;2.87;;;;;;;33.17;60.71;95519.75;5091472;28;20439;-59
2023/07/16 08:04:34;;;;;;;0.80;0.80;;;;;;;33.72;58.58;95526.97;5090984;28;20444;-59
2023/07/16 08:07:03;;;;;;;0.60;0.60;;;;;;;34.79;55.94;95527.72;5090755;28;20482;-59
2023/07/16 08:09:32;;;;;;;0.40;0.40;;;;;;;35.23;55.54;95520.25;5090488;28;20438;-59
2023/07/16 08:12:00;;;;;;;1.27;1.17;;;;;;;35.75;55.33;95515.66;5090899;28;20999;-58
2023/07/16 08:14:28;;;;;;;0.60;0.60;;;;;;;36.15;53.42;95517.16;5090757;28;20435;-59
2023/07/16 08:16:57;;;;;;;0.90;0.70;;;;;;;35.94;55.13;95517.59;5090909;28;20448;-59
2023/07/16 08:19:27;;;;;;;1.67;1.20;;;;;;;35.36;54.48;95515.66;5094111;28;20428;-59
2023/07/16 08:21:56;;;;;;;3.13;2.93;;;;;;;34.65;54.13;95525.22;5095520;28;20197;-59
2023/07/16 08:24:26;;;;;;;0.80;0.80;;;;;;;34.72;54.77;95516.03;5094926;28;20197;-59
2023/07/16 08:26:54;;;;;;;9.43;1.60;;;;;;;35.36;54.59;95516.44;5095171;28;20254;-60
2023/07/16 08:29:22;;;;;;;0.87;0.87;;;;;;;35.27;53.64;95510.69;5094444;28;20190;-60
2023/07/16 08:31:51;;;;;;;2.23;2.00;;;;;;;35.40;53.70;95516.34;5095003;28;20494;-59
2023/07/16 08:34:19;;;;;;;1.27;1.17;;;;;;;35.43;51.29;95510.78;5094548;28;20194;-60
2023/07/16 08:36:49;;;;;;;1.80;1.67;;;;;;;35.51;50.46;95514.16;5094827;28;20201;-59
2023/07/16 08:39:19;;;;;;;1.57;1.47;;;;;;;35.57;49.80;95507.00;5094680;28;20263;-59
2023/07/16 08:41:49;;;;;;;1.13;1.07;;;;;;;36.42;49.51;95505.06;5095131;28;20198;-59
2023/07/16 08:44:18;;;;;;;2.13;1.00;;;;;;;37.11;49.38;95507.28;5094725;28;20248;-59
2023/07/16 08:46:46;;;;;;;1.10;1.00;;;;;;;36.47;52.93;95501.78;5094102;28;20194;-60
2023/07/16 08:49:18;;;;;;;2.40;2.20;;;;;;;36.27;49.84;95502.66;5094193;28;20193;-60
2023/07/16 08:51:48;;;;;;;1.07;1.07;;;;;;;37.06;49.39;95499.53;5094028;28;20254;-59
2023/07/16 08:54:19;;;;;;;1.55;0.98;;;;;;;36.83;49.67;95494.97;5094203;28;20739;-60
2023/07/16 08:56:49;;;;;;;1.58;0.70;;;;;;;36.96;51.38;95499.81;5094153;28;20666;-60
2023/07/16 08:59:18;;;;;;;1.42;1.33;;;;;;;36.95;48.16;95493.50;5094207;28;20253;-60
2023/07/16 09:01:48;;;;;;;2.50;1.27;;;;;;;36.17;49.35;95502.91;5093953;28;20654;-60
2023/07/16 09:04:16;;;;;;;1.00;1.00;;;;;;;36.85;48.47;95495.31;5094428;28;20201;-61
2023/07/16 09:06:45;;;;;;;0.70;0.70;;;;;;;37.58;46.48;95488.19;5093995;28;20200;-60
2023/07/16 09:09:23;;;;;;;1.23;1.13;;;;;;;37.79;47.27;95481.25;5094189;28;20197;-61
2023/07/16 09:11:51;;;;;;;1.08;1.08;;;;;;;37.48;47.04;95426.47;5067672;28;20190;-60
2023/07/16 09:14:20;;;;;;;1.42;1.33;;;;;;;37.91;46.86;95480.53;5093697;28;20200;-60
2023/07/16 09:16:50;;;;;;;5.03;1.38;;;;;;;37.49;46.34;95482.56;5094360;28;20577;-61
2023/07/16 09:19:19;;;;;;;2.03;1.92;;;;;;;36.52;46.42;95427.53;5093372;28;20617;-61
2023/07/16 09:21:48;;;;;;;2.55;2.42;;;;;;;36.68;48.29;95480.00;5094097;28;20186;-61
2023/07/16 09:24:16;;;;;;;1.45;1.35;;;;;;;36.33;47.48;95480.06;5093539;28;20194;-60
2023/07/16 09:26:53;;;;;;;1.45;1.40;;;;;;;37.34;46.80;95473.84;5093617;28;20194;-61
2023/07/16 09:29:22;;;;;;;1.67;1.58;;;;;;;36.82;47.44;95476.84;5092845;28;20647;-61
2023/07/16 09:31:55;;;;;;;0.40;0.40;;;;;;;38.05;45.28;95469.03;5093791;28;20201;-62
2023/07/16 09:34:23;;;;;;;1.00;1.00;;;;;;;38.37;44.49;95460.47;5093661;28;20251;-61
2023/07/16 09:36:52;;;;;;;0.82;0.82;;;;;;;38.11;45.27;95467.22;5093437;28;20197;-61
2023/07/16 09:39:20;;;;;;;1.30;1.20;;;;;;;38.06;44.81;95460.25;5093191;28;20258;-61
2023/07/16 09:41:50;;;;;;;1.02;1.02;;;;;;;38.49;44.78;95458.91;5093399;28;20198;-60
2023/07/16 09:44:20;;;;;;;0.57;0.57;;;;;;;39.21;43.26;95456.03;5067748;28;20267;-61
2023/07/16 09:46:49;;;;;;;1.67;1.58;;;;;;;39.21;45.69;95451.28;5093431;28;20201;-61
2023/07/16 09:49:17;;;;;;;1.38;1.15;;;;;;;37.84;44.05;95453.81;5093587;28;20224;-61
2023/07/16 09:51:46;;;;;;;0.93;0.93;;;;;;;38.02;44.07;95400.72;5093124;28;20674;-60
2023/07/16 09:54:15;;;;;;;1.67;0.85;;;;;;;38.11;44.15;95453.38;5093420;28;20290;-61
2023/07/16 09:56:49;;;;;;;1.45;1.23;;;;;;;38.83;43.95;95444.31;5099746;28;20227;-61
2023/07/16 09:59:22;;;;;;;2.92;2.83;;;;;;;38.46;43.76;95440.41;5093361;28;20243;-61
2023/07/16 10:01:51;;;;;;;0.98;0.90;;;;;;;38.82;44.34;95438.00;5093223;28;20193;-60
2023/07/16 10:04:21;;;;;;;1.15;1.15;;;;;;;38.81;43.45;95385.78;5093250;28;20284;-60
2023/07/16 10:06:53;;;;;;;1.42;0.70;;;;;;;39.19;41.95;95431.50;5092670;28;20196;-60
2023/07/16 10:09:39;;;;;;;1.00;1.00;;;;;;;39.09;42.64;95423.59;5092549;28;20193;-60
2023/07/16 10:12:15;;;;;;;0.75;0.75;;;;;;;39.76;42.93;95415.53;5092833;28;20284;-60
2023/07/16 10:14:46;;;;;;;2.47;1.52;;;;;;;37.99;42.59;95426.50;5092183;28;20236;-61
2023/07/16 10:17:19;;;;;;;2.13;1.52;;;;;;;38.82;42.58;95420.59;5093007;28;20198;-61
2023/07/16 10:19:47;;;;;;;3.90;1.50;;;;;;;38.96;40.73;95403.47;5092613;28;20647;-61
2023/07/16 10:22:16;;;;;;;1.50;1.40;;;;;;;37.87;42.66;95421.75;5092334;28;20259;-61
2023/07/16 10:24:44;;;;;;;0.80;0.73;;;;;;;38.68;41.90;95408.75;5092683;28;20194;-61
2023/07/16 10:27:14;;;;;;;1.73;1.63;;;;;;;39.31;40.51;95411.28;5092332;28;20627;-60
2023/07/16 10:29:44;;;;;;;1.60;1.50;;;;;;;39.49;41.28;95401.50;5067026;28;20193;-62
2023/07/16 10:32:12;;;;;;;1.25;0.85;;;;;;;39.14;40.69;95392.50;5091931;28;20198;-62
2023/07/16 10:34:44;;;;;;;0.93;0.80;;;;;;;39.75;39.54;95398.09;5092255;28;20226;-61
2023/07/16 10:37:12;;;;;;;1.00;1.00;;;;;;;40.04;39.62;95383.09;5092138;28;20209;-61
2023/07/16 10:39:48;;;;;;;2.60;2.03;;;;;;;39.10;39.92;95397.38;5092165;28;20208;-61
2023/07/16 10:42:17;;;;;;;2.30;2.08;;;;;;;38.14;41.71;95403.47;5091028;28;20229;-61
2023/07/16 10:44:49;;;;;;;0.98;0.98;;;;;;;39.36;41.18;95384.94;5092202;28;20229;-61
2023/07/16 10:47:24;;;;;;;1.75;1.05;;;;;;;39.96;38.87;95386.16;5091833;28;20228;-60
2023/07/16 10:49:54;;;;;;;2.92;1.27;;;;;;;40.54;37.87;95379.81;5092559;28;20203;-60
2023/07/16 10:52:22;;;;;;;4.53;1.15;;;;;;;40.12;38.55;95382.38;5091919;28;20731;-61
2023/07/16 10:54:54;;;;;;;1.42;1.23;;;;;;;39.31;40.01;95375.22;5091451;28;20217;-60
2023/07/16 10:57:23;;;;;;;2.42;1.33;;;;;;;39.48;39.08;95372.97;5066997;28;20217;-60
2023/07/16 10:59:54;;;;;;;1.25;1.15;;;;;;;40.20;40.50;95377.28;5091297;28;20228;-59
2023/07/16 11:02:24;;;;;;;1.55;1.05;;;;;;;40.34;38.29;95374.69;5091965;28;20266;-61
2023/07/16 11:04:54;;;;;;;0.88;0.88;;;;;;;40.07;38.03;95369.09;5091493;28;20666;-60
2023/07/16 11:07:23;;;;;;;0.60;0.60;;;;;;;40.15;37.71;95369.56;5091904;28;20204;-61
2023/07/16 11:09:53;;;;;;;1.50;1.35;;;;;;;40.08;38.13;95369.88;5091329;28;20190;-62
2023/07/16 11:12:23;;;;;;;1.77;1.65;;;;;;;39.50;38.52;95369.75;5091720;28;20743;-62
2023/07/16 11:14:54;;;;;;;1.55;1.48;;;;;;;38.56;38.76;95367.22;5091163;28;20212;-61
2023/07/16 11:17:25;;;;;;;4.25;1.42;;;;;;;39.11;38.30;95369.22;5091627;28;20654;-61
2023/07/16 11:19:55;;;;;;;2.72;1.63;;;;;;;38.79;38.38;95372.38;5090836;28;20197;-61
2023/07/16 11:22:27;;;;;;;1.23;1.13;;;;;;;38.34;39.50;95369.19;5091675;28;20221;-60
2023/07/16 11:24:56;;;;;;;4.22;2.72;;;;;;;39.00;39.25;95354.19;5078628;28;20205;-61
2023/07/16 11:27:26;;;;;;;1.85;1.75;;;;;;;39.09;39.31;95362.59;5091626;28;20198;-61
2023/07/16 11:29:57;;;;;;;1.10;1.02;;;;;;;39.90;38.91;95354.66;5091712;28;20189;-61
2023/07/16 11:32:30;;;;;;;13.88;1.38;;;;;;;39.35;39.12;95331.47;5091064;28;20237;-61
2023/07/16 11:35:00;;;;;;;2.05;1.80;;;;;;;38.64;39.67;95355.47;5091098;28;20210;-61
2023/07/16 11:37:30;;;;;;;1.50;1.40;;;;;;;38.68;38.75;95363.66;5090971;28;20185;-62
2023/07/16 11:39:59;;;;;;;1.80;1.70;;;;;;;38.50;40.27;95350.44;5090976;28;20198;-61